createdAt,value
2024-01-30T00:00:43.001Z,6.73
2024-01-30T00:03:10.338Z,6.67
2024-01-30T00:05:50.060Z,6.70
2024-01-30T00:08:20.865Z,6.80
2024-01-30T00:10:50.551Z,6.40
2024-01-30T00:13:20.638Z,6.10
2024-01-30T00:15:48.383Z,6.73
2024-01-30T00:18:15.835Z,6.67
2024-01-30T00:20:50.264Z,6.67
2024-01-30T00:23:17.532Z,6.50
2024-01-30T00:25:48.164Z,6.23
2024-01-30T00:28:17.820Z,6.60
2024-01-30T00:30:47.126Z,6.43
2024-01-30T00:33:17.543Z,6.37
2024-01-30T00:35:47.304Z,6.30
2024-01-30T00:38:17.525Z,6.33
2024-01-30T00:40:47.362Z,7.23
2024-01-30T00:43:17.892Z,6.10
2024-01-30T00:46:04.735Z,6.37
2024-01-30T00:48:34.193Z,6.27
2024-01-30T00:51:10.379Z,6.30
2024-01-30T00:53:37.701Z,6.17
2024-01-30T00:56:05.319Z,6.50
2024-01-30T00:58:32.560Z,6.83
2024-01-30T01:00:59.971Z,6.53
2024-01-30T01:03:27.331Z,6.60
2024-01-30T01:05:57.139Z,6.90
2024-01-30T01:08:24.306Z,6.70
2024-01-30T01:10:53.825Z,6.63
2024-01-30T01:13:21.296Z,6.67
2024-01-30T01:15:48.695Z,6.23
2024-01-30T01:18:20.158Z,6.43
2024-01-30T01:21:11.290Z,6.70
2024-01-30T01:23:39.724Z,6.30
2024-01-30T01:26:30.211Z,6.97
2024-01-30T01:28:57.369Z,6.40
2024-01-30T01:31:26.204Z,7.43
2024-01-30T01:33:53.600Z,6.67
2024-01-30T01:36:21.996Z,6.03
2024-01-30T01:39:06.854Z,6.73
2024-01-30T01:41:46.135Z,6.53
2024-01-30T01:44:17.676Z,7.10
2024-01-30T01:46:45.488Z,6.70
2024-01-30T01:49:24.344Z,6.43
2024-01-30T01:52:01.374Z,6.53
2024-01-30T01:54:31.257Z,6.33
2024-01-30T01:56:58.453Z,6.40
2024-01-30T01:59:26.398Z,6.43
2024-01-30T02:01:55.624Z,7.10
2024-01-30T02:04:22.894Z,6.17
2024-01-30T02:06:52.816Z,6.37
2024-01-30T02:09:20.190Z,6.87
2024-01-30T02:11:47.412Z,6.30
2024-01-30T02:14:15.670Z,7.23
2024-01-30T02:16:42.961Z,6.50
2024-01-30T02:19:10.352Z,6.50
2024-01-30T02:21:37.543Z,6.30
2024-01-30T02:24:06.058Z,7.30
2024-01-30T02:26:33.103Z,6.97
2024-01-30T02:29:00.264Z,6.70
2024-01-30T02:31:27.835Z,6.87
2024-01-30T02:33:55.137Z,7.10
2024-01-30T02:36:22.509Z,7.33
2024-01-30T02:38:51.369Z,6.83
2024-01-30T02:41:19.540Z,6.80
2024-01-30T02:43:46.648Z,6.97
2024-01-30T02:46:13.732Z,7.00
2024-01-30T02:48:40.989Z,6.70
2024-01-30T02:51:12.960Z,7.37
2024-01-30T02:53:40.042Z,7.70
2024-01-30T02:56:10.806Z,7.17
2024-01-30T02:58:38.661Z,6.90
2024-01-30T03:01:07.870Z,7.47
2024-01-30T03:03:38.198Z,7.20
2024-01-30T03:06:51.728Z,7.03
2024-01-30T03:09:19.334Z,7.27
2024-01-30T03:12:28.017Z,7.10
2024-01-30T03:14:55.070Z,6.80
2024-01-30T03:17:22.155Z,7.47
2024-01-30T03:19:49.497Z,6.63
2024-01-30T03:22:18.142Z,7.77
2024-01-30T03:24:48.191Z,7.63
2024-01-30T03:27:16.174Z,7.63
2024-01-30T03:29:47.892Z,7.77
2024-01-30T03:32:15.077Z,7.37
2024-01-30T03:34:43.322Z,7.73
2024-01-30T03:37:12.065Z,6.57
2024-01-30T03:39:39.262Z,6.83
2024-01-30T03:42:06.478Z,6.63
2024-01-30T03:44:39.426Z,7.03
2024-01-30T03:47:17.559Z,7.00
2024-01-30T03:49:44.765Z,6.70
2024-01-30T03:52:11.895Z,7.13
2024-01-30T03:54:39.181Z,7.80
2024-01-30T03:57:06.942Z,7.23
2024-01-30T03:59:34.018Z,7.17
2024-01-30T04:02:01.643Z,7.23
2024-01-30T04:04:28.870Z,7.20
2024-01-30T04:06:56.037Z,7.23
2024-01-30T04:09:23.160Z,7.23
2024-01-30T04:11:53.832Z,7.13
2024-01-30T04:14:20.917Z,7.47
2024-01-30T04:16:49.012Z,7.10
2024-01-30T04:19:17.204Z,7.10
2024-01-30T04:21:45.443Z,7.17
2024-01-30T04:24:13.946Z,6.73
2024-01-30T04:26:41.122Z,6.67
2024-01-30T04:29:08.319Z,6.97
2024-01-30T04:31:40.538Z,6.73
2024-01-30T04:34:08.736Z,7.20
2024-01-30T04:36:38.384Z,6.73
2024-01-30T04:39:07.549Z,7.30
2024-01-30T04:41:35.066Z,7.13
2024-01-30T04:44:02.264Z,6.87
2024-01-30T04:46:35.737Z,7.20
2024-01-30T04:49:03.002Z,6.67
2024-01-30T04:52:09.831Z,6.73
2024-01-30T04:54:37.208Z,7.17
2024-01-30T04:57:22.488Z,6.67
2024-01-30T04:59:49.622Z,7.20
2024-01-30T05:02:17.826Z,6.33
2024-01-30T05:04:45.069Z,6.53
2024-01-30T05:07:12.451Z,6.40
2024-01-30T05:09:39.672Z,7.07
2024-01-30T05:12:08.671Z,6.17
2024-01-30T05:14:53.386Z,6.23
2024-01-30T05:17:51.759Z,6.27
2024-01-30T05:20:29.890Z,7.00
2024-01-30T05:22:57.340Z,6.30
2024-01-30T05:25:24.808Z,7.00
2024-01-30T05:27:51.960Z,6.60
2024-01-30T05:30:18.992Z,6.87
2024-01-30T05:32:46.320Z,6.87
2024-01-30T05:35:13.584Z,6.93
2024-01-30T05:37:40.835Z,7.57
2024-01-30T05:40:09.171Z,6.90
2024-01-30T05:42:36.289Z,7.20
2024-01-30T05:45:28.659Z,7.23
2024-01-30T05:48:05.777Z,6.63
2024-01-30T05:50:43.723Z,7.57
2024-01-30T05:53:13.184Z,7.20
2024-01-30T05:55:43.573Z,6.53
2024-01-30T05:58:12.853Z,6.83
2024-01-30T06:00:56.563Z,6.80
2024-01-30T06:03:23.660Z,6.73
2024-01-30T06:05:50.728Z,7.33
2024-01-30T06:08:25.798Z,6.40
2024-01-30T06:10:53.280Z,6.67
2024-01-30T06:13:20.938Z,7.23
2024-01-30T06:15:48.034Z,6.73
2024-01-30T06:18:15.132Z,6.70
2024-01-30T06:20:42.326Z,7.63
2024-01-30T06:23:09.515Z,6.73
2024-01-30T06:25:36.534Z,6.50
2024-01-30T06:28:03.595Z,7.00
2024-01-30T06:30:31.020Z,6.47
2024-01-30T06:32:59.159Z,7.17
2024-01-30T06:35:29.939Z,6.50
2024-01-30T06:38:50.443Z,6.53
2024-01-30T06:41:17.577Z,6.73
2024-01-30T06:43:58.114Z,7.03
2024-01-30T06:46:25.255Z,7.27
2024-01-30T06:48:52.385Z,6.67
2024-01-30T06:51:19.518Z,6.63
2024-01-30T06:53:46.473Z,7.10
2024-01-30T06:56:13.729Z,7.30
2024-01-30T06:58:40.899Z,6.97
2024-01-30T07:01:19.467Z,6.43
2024-01-30T07:03:53.825Z,6.80
2024-01-30T07:06:22.070Z,7.40
2024-01-30T07:08:50.600Z,7.37
2024-01-30T07:11:23.365Z,7.07
2024-01-30T07:13:52.166Z,6.80
2024-01-30T07:16:19.315Z,6.83
2024-01-30T07:18:46.736Z,6.57
2024-01-30T07:21:13.768Z,6.70
2024-01-30T07:23:40.942Z,6.60
2024-01-30T07:26:07.980Z,7.23
2024-01-30T07:28:35.756Z,6.97
2024-01-30T07:31:03.320Z,6.90
2024-01-30T07:33:30.314Z,7.00
2024-01-30T07:35:57.691Z,7.03
2024-01-30T07:38:26.751Z,7.60
2024-01-30T07:40:53.910Z,7.40
2024-01-30T07:43:21.548Z,8.03
2024-01-30T07:45:48.739Z,7.10
2024-01-30T07:48:15.893Z,8.00
2024-01-30T07:50:43.408Z,7.67
2024-01-30T07:53:11.558Z,8.10
2024-01-30T07:55:38.687Z,7.40
2024-01-30T07:58:06.038Z,7.57
2024-01-30T08:00:33.380Z,7.60
2024-01-30T08:03:00.637Z,7.90
2024-01-30T08:05:28.019Z,7.80
2024-01-30T08:07:55.124Z,7.77
2024-01-30T08:10:23.343Z,7.83
2024-01-30T08:12:50.471Z,8.83
2024-01-30T08:15:17.633Z,8.13
2024-01-30T08:17:45.976Z,8.27
2024-01-30T08:21:12.425Z,8.53
2024-01-30T08:23:43.955Z,8.93
2024-01-30T08:26:39.784Z,8.20
2024-01-30T08:29:07.115Z,8.97
2024-01-30T08:31:34.552Z,9.13
2024-01-30T08:34:01.787Z,8.90
2024-01-30T08:36:29.143Z,8.60
2024-01-30T08:38:59.209Z,9.27
2024-01-30T08:41:29.004Z,8.97
2024-01-30T08:43:56.069Z,9.70
2024-01-30T08:46:23.129Z,10.10
2024-01-30T08:48:58.239Z,10.27
2024-01-30T08:51:27.358Z,8.53
2024-01-30T08:53:55.243Z,9.00
2024-01-30T08:56:22.379Z,8.93
2024-01-30T08:58:49.590Z,9.07
2024-01-30T09:01:16.876Z,9.40
2024-01-30T09:03:46.831Z,8.57
2024-01-30T09:06:14.196Z,8.43
2024-01-30T09:08:41.179Z,8.33
2024-01-30T09:11:14.007Z,8.70
2024-01-30T09:13:41.138Z,8.33
2024-01-30T09:16:08.924Z,8.47
2024-01-30T09:18:36.029Z,8.20
2024-01-30T09:21:03.177Z,7.87
2024-01-30T09:23:30.238Z,8.03
2024-01-30T09:25:57.450Z,7.67
2024-01-30T09:28:27.550Z,6.50
2024-01-30T09:30:54.985Z,5.33
2024-01-30T09:33:22.153Z,5.40
2024-01-30T09:35:49.257Z,2.43
2024-01-30T09:38:16.414Z,2.30
2024-01-30T09:40:43.861Z,1.77
2024-01-30T09:43:18.260Z,1.50
2024-01-30T09:45:48.360Z,1.30
2024-01-30T09:48:16.510Z,1.70
2024-01-30T09:50:44.006Z,1.60
2024-01-30T09:53:21.137Z,1.40
2024-01-30T09:55:48.786Z,1.53
2024-01-30T09:58:18.379Z,1.53
2024-01-30T10:00:45.561Z,1.30
2024-01-30T10:04:05.592Z,1.30
2024-01-30T10:06:32.679Z,0.87
2024-01-30T10:09:10.543Z,0.80
2024-01-30T10:11:38.088Z,0.70
2024-01-30T10:14:05.291Z,0.70
2024-01-30T10:16:32.537Z,0.60
2024-01-30T10:18:59.751Z,0.60
2024-01-30T10:21:26.878Z,0.80
2024-01-30T10:23:54.134Z,0.90
2024-01-30T10:26:22.412Z,0.87
2024-01-30T10:28:50.384Z,1.30
2024-01-30T10:31:20.469Z,1.20
2024-01-30T10:33:50.302Z,0.93
2024-01-30T10:36:21.096Z,1.60
2024-01-30T10:38:52.362Z,0.97
2024-01-30T10:41:27.783Z,1.23
2024-01-30T10:44:10.792Z,1.07
2024-01-30T10:46:40.700Z,1.07
2024-01-30T10:49:08.205Z,1.07
2024-01-30T10:51:36.751Z,0.90
2024-01-30T10:54:06.400Z,0.90
2024-01-30T10:56:34.923Z,1.00
2024-01-30T10:59:02.368Z,0.97
2024-01-30T11:01:30.054Z,1.00
2024-01-30T11:03:58.036Z,1.00
2024-01-30T11:06:27.016Z,1.00
2024-01-30T11:09:13.413Z,0.80
2024-01-30T11:12:02.918Z,1.00
2024-01-30T11:14:33.362Z,1.00
2024-01-30T11:17:01.211Z,0.90
2024-01-30T11:19:31.742Z,0.70
2024-01-30T11:21:59.247Z,0.80
2024-01-30T11:24:27.372Z,0.87
2024-01-30T11:26:59.365Z,1.10
2024-01-30T11:29:28.440Z,0.77
2024-01-30T11:32:00.362Z,0.80
2024-01-30T11:34:27.705Z,1.10
2024-01-30T11:37:01.027Z,0.83
2024-01-30T11:39:28.588Z,0.90
2024-01-30T11:41:56.537Z,0.80
2024-01-30T11:45:05.226Z,0.73
2024-01-30T11:47:32.365Z,0.93
2024-01-30T11:50:43.884Z,1.10
2024-01-30T11:53:11.270Z,0.87
2024-01-30T11:55:39.003Z,1.10
2024-01-30T11:58:06.605Z,0.80
2024-01-30T12:00:34.936Z,1.30
2024-01-30T12:03:04.194Z,1.03
2024-01-30T12:05:31.689Z,1.10
2024-01-30T12:08:01.179Z,0.70
2024-01-30T12:10:29.339Z,0.83
2024-01-30T12:12:56.943Z,0.70
2024-01-30T12:15:26.051Z,1.00
2024-01-30T12:17:53.633Z,1.10
2024-01-30T12:20:38.377Z,1.10
2024-01-30T12:23:05.693Z,1.00
2024-01-30T12:25:33.112Z,0.77
2024-01-30T12:28:00.476Z,0.80
2024-01-30T12:30:40.422Z,1.13
2024-01-30T12:33:09.700Z,1.10
2024-01-30T12:35:40.011Z,1.30
2024-01-30T12:38:13.579Z,1.60
2024-01-30T12:40:41.992Z,1.37
2024-01-30T12:43:09.683Z,1.10
2024-01-30T12:45:37.903Z,1.50
2024-01-30T12:48:05.554Z,1.30
2024-01-30T12:50:32.683Z,1.23
2024-01-30T12:53:00.076Z,1.90
2024-01-30T12:55:29.676Z,1.20
2024-01-30T12:57:57.117Z,1.10
2024-01-30T13:00:24.597Z,1.07
2024-01-30T13:02:51.738Z,1.20
2024-01-30T13:05:19.053Z,0.90
2024-01-30T13:07:46.280Z,1.20
2024-01-30T13:10:13.472Z,1.10
2024-01-30T13:12:40.910Z,1.43
2024-01-30T13:15:09.047Z,1.70
2024-01-30T13:17:37.415Z,1.70
2024-01-30T13:20:10.876Z,1.60
2024-01-30T13:22:40.437Z,1.70
2024-01-30T13:25:08.818Z,1.50
2024-01-30T13:27:52.406Z,1.77
2024-01-30T13:30:19.615Z,1.10
2024-01-30T13:32:55.698Z,8.60
2024-01-30T13:35:22.819Z,4.00
2024-01-30T13:37:50.085Z,1.83
2024-01-30T13:40:17.845Z,1.20
2024-01-30T13:42:44.987Z,3.77
2024-01-30T13:45:12.414Z,2.47
2024-01-30T13:47:40.244Z,1.37
2024-01-30T13:50:07.694Z,4.80
2024-01-30T13:52:41.496Z,2.23
2024-01-30T13:55:12.125Z,2.90
2024-01-30T13:57:39.647Z,1.73
2024-01-30T14:00:08.178Z,1.40
2024-01-30T14:02:35.617Z,1.60
2024-01-30T14:05:02.913Z,1.80
2024-01-30T14:07:45.065Z,1.43
2024-01-30T14:10:14.523Z,1.60
2024-01-30T14:12:45.242Z,1.47
2024-01-30T14:15:22.777Z,1.43
2024-01-30T14:17:55.277Z,1.63
2024-01-30T14:20:28.969Z,1.50
2024-01-30T14:23:05.074Z,1.20
2024-01-30T14:25:32.163Z,1.33
2024-01-30T14:27:59.348Z,1.60
2024-01-30T14:30:26.362Z,2.07
2024-01-30T14:32:53.584Z,1.30
2024-01-30T14:35:21.831Z,2.03
2024-01-30T14:37:49.132Z,1.50
2024-01-30T14:40:16.195Z,1.60
2024-01-30T14:42:43.288Z,2.63
2024-01-30T14:45:12.765Z,8.90
2024-01-30T14:47:40.176Z,5.07
2024-01-30T14:50:08.980Z,2.43
2024-01-30T14:52:38.603Z,2.43
2024-01-30T14:55:06.676Z,2.10
2024-01-30T14:57:35.765Z,1.37
2024-01-30T15:00:03.558Z,1.67
2024-01-30T15:02:30.606Z,1.50
2024-01-30T15:04:57.859Z,1.90
2024-01-30T15:07:33.000Z,9.87
2024-01-30T15:10:48.763Z,2.87
2024-01-30T15:13:17.711Z,2.13
2024-01-30T15:15:52.199Z,2.70
2024-01-30T15:18:19.339Z,2.40
2024-01-30T15:20:46.378Z,2.80
2024-01-30T15:23:13.481Z,2.60
2024-01-30T15:25:40.623Z,2.73
2024-01-30T15:28:07.805Z,2.67
2024-01-30T15:30:34.855Z,2.50
2024-01-30T15:33:02.921Z,2.40
2024-01-30T15:35:29.993Z,2.80
2024-01-30T15:37:57.049Z,3.37
2024-01-30T15:40:24.141Z,4.67
2024-01-30T15:42:51.233Z,3.00
2024-01-30T15:45:18.227Z,3.03
2024-01-30T15:47:45.298Z,2.43
2024-01-30T15:50:13.436Z,3.77
2024-01-30T15:52:52.688Z,3.40
2024-01-30T15:55:53.911Z,4.77
2024-01-30T15:58:21.036Z,4.17
2024-01-30T16:00:48.162Z,3.90
2024-01-30T16:03:15.232Z,3.47
2024-01-30T16:05:42.821Z,3.57
2024-01-30T16:08:10.892Z,3.93
2024-01-30T16:10:39.367Z,4.93
2024-01-30T16:13:24.917Z,4.53
2024-01-30T16:15:51.993Z,3.53
2024-01-30T16:18:19.187Z,3.97
2024-01-30T16:20:46.351Z,3.17
2024-01-30T16:23:13.464Z,4.77
2024-01-30T16:25:40.507Z,4.23
2024-01-30T16:28:07.671Z,4.70
2024-01-30T16:30:38.521Z,3.10
2024-01-30T16:33:09.489Z,3.50
2024-01-30T16:35:45.567Z,2.93
2024-01-30T16:38:17.633Z,3.47
2024-01-30T16:40:44.934Z,3.07
2024-01-30T16:43:13.516Z,3.30
2024-01-30T16:45:41.307Z,2.90
2024-01-30T16:48:08.781Z,3.03
2024-01-30T16:50:39.063Z,3.30
2024-01-30T16:53:44.447Z,3.00
2024-01-30T16:56:22.422Z,3.57
2024-01-30T16:58:49.604Z,4.47
2024-01-30T17:01:16.713Z,5.67
2024-01-30T17:03:44.935Z,4.73
2024-01-30T17:06:13.815Z,3.97
2024-01-30T17:08:41.415Z,3.43
2024-01-30T17:11:09.921Z,3.20
2024-01-30T17:13:40.485Z,3.23
2024-01-30T17:16:08.191Z,3.63
2024-01-30T17:18:36.744Z,4.03
2024-01-30T17:21:04.066Z,3.97
2024-01-30T17:23:34.679Z,4.13
2024-01-30T17:26:02.330Z,4.00
2024-01-30T17:28:29.585Z,3.70
2024-01-30T17:30:56.966Z,3.80
2024-01-30T17:33:24.693Z,3.73
2024-01-30T17:35:51.834Z,3.70
2024-01-30T17:38:19.004Z,3.43
2024-01-30T17:41:12.980Z,2.97
2024-01-30T17:43:43.087Z,3.50
2024-01-30T17:46:10.562Z,3.93
2024-01-30T17:48:37.956Z,3.30
2024-01-30T17:51:05.257Z,3.73
2024-01-30T17:53:33.355Z,4.80
2024-01-30T17:56:06.598Z,36.43
2024-01-30T17:58:33.927Z,14.10
2024-01-30T18:01:01.740Z,11.17
2024-01-30T18:03:29.076Z,9.37
2024-01-30T18:05:56.533Z,4.80
2024-01-30T18:08:26.677Z,6.07
2024-01-30T18:10:55.468Z,4.90
2024-01-30T18:13:22.759Z,5.10
2024-01-30T18:15:49.977Z,5.67
2024-01-30T18:18:17.275Z,4.97
2024-01-30T18:20:44.261Z,5.23
2024-01-30T18:23:11.387Z,5.57
2024-01-30T18:25:38.553Z,4.63
2024-01-30T18:28:06.912Z,5.47
2024-01-30T18:30:34.093Z,4.60
2024-01-30T18:33:04.069Z,5.10
2024-01-30T18:36:14.112Z,5.17
2024-01-30T18:38:57.227Z,4.80
2024-01-30T18:41:24.319Z,8.80
2024-01-30T18:43:51.461Z,10.77
2024-01-30T18:46:23.232Z,8.90
2024-01-30T18:48:50.836Z,8.00
2024-01-30T18:51:18.325Z,7.40
2024-01-30T18:53:45.610Z,9.07
2024-01-30T18:56:14.309Z,5.77
2024-01-30T18:58:41.532Z,5.40
2024-01-30T19:01:09.740Z,4.80
2024-01-30T19:03:37.026Z,4.70
2024-01-30T19:06:04.638Z,5.00
2024-01-30T19:08:31.919Z,4.60
2024-01-30T19:10:59.064Z,5.03
2024-01-30T19:13:26.156Z,6.83
2024-01-30T19:15:53.528Z,6.63
2024-01-30T19:18:20.638Z,9.50
2024-01-30T19:20:49.258Z,11.60
2024-01-30T19:23:18.879Z,15.63
2024-01-30T19:25:48.814Z,12.63
2024-01-30T19:28:36.472Z,13.43
2024-01-30T19:31:06.629Z,12.37
2024-01-30T19:33:33.815Z,6.93
2024-01-30T19:36:03.376Z,7.43
2024-01-30T19:38:30.543Z,5.23
2024-01-30T19:40:58.926Z,5.50
2024-01-30T19:43:26.615Z,5.53
2024-01-30T19:45:54.270Z,5.60
2024-01-30T19:48:21.982Z,5.63
2024-01-30T19:50:49.138Z,6.50
2024-01-30T19:53:16.351Z,8.30
2024-01-30T19:55:43.500Z,7.50
2024-01-30T19:58:10.599Z,7.93
2024-01-30T20:00:38.265Z,7.90
2024-01-30T20:03:05.602Z,8.23
2024-01-30T20:05:32.993Z,17.30
2024-01-30T20:08:00.313Z,7.80
2024-01-30T20:10:27.469Z,7.57
2024-01-30T20:12:56.377Z,10.73
2024-01-30T20:15:24.182Z,10.80
2024-01-30T20:18:33.302Z,9.00
2024-01-30T20:21:12.571Z,9.20
2024-01-30T20:23:39.933Z,8.40
2024-01-30T20:26:07.080Z,8.77
2024-01-30T20:28:34.166Z,7.87
2024-01-30T20:31:01.295Z,7.30
2024-01-30T20:33:28.502Z,7.13
2024-01-30T20:35:55.626Z,7.60
2024-01-30T20:38:22.832Z,7.17
2024-01-30T20:40:49.996Z,7.47
2024-01-30T20:43:17.128Z,8.27
2024-01-30T20:45:44.120Z,7.87
2024-01-30T20:48:11.364Z,7.37
2024-01-30T20:50:38.401Z,7.57
2024-01-30T20:53:05.506Z,7.37
2024-01-30T20:55:32.800Z,6.87
2024-01-30T20:58:00.112Z,7.60
2024-01-30T21:00:27.622Z,7.73
2024-01-30T21:02:54.677Z,7.00
2024-01-30T21:05:24.168Z,7.17
2024-01-30T21:07:54.388Z,8.00
2024-01-30T21:10:22.142Z,7.30
2024-01-30T21:12:57.930Z,7.63
2024-01-30T21:15:36.860Z,7.77
2024-01-30T21:18:06.767Z,8.80
2024-01-30T21:20:34.275Z,8.97
2024-01-30T21:23:02.013Z,9.37
2024-01-30T21:25:29.491Z,9.63
2024-01-30T21:27:56.683Z,9.80
2024-01-30T21:30:23.735Z,9.63
2024-01-30T21:32:50.951Z,9.00
2024-01-30T21:35:18.076Z,10.07
2024-01-30T21:37:45.275Z,10.10
2024-01-30T21:40:12.507Z,90.83
2024-01-30T21:42:40.062Z,77.73
2024-01-30T21:45:08.860Z,100.83
2024-01-30T21:47:35.933Z,97.87
2024-01-30T21:50:04.548Z,24.37
2024-01-30T21:52:33.030Z,12.27
2024-01-30T21:55:00.271Z,11.80
2024-01-30T21:57:28.410Z,11.63
2024-01-30T22:00:33.365Z,11.03
2024-01-30T22:03:00.612Z,10.60
2024-01-30T22:05:28.685Z,12.03
2024-01-30T22:07:55.851Z,10.47
2024-01-30T22:10:22.977Z,9.77
2024-01-30T22:12:50.645Z,9.23
2024-01-30T22:15:19.284Z,12.87
2024-01-30T22:17:46.343Z,22.37
2024-01-30T22:20:13.538Z,22.17
2024-01-30T22:22:40.942Z,20.43
2024-01-30T22:25:08.628Z,23.83
2024-01-30T22:27:35.817Z,14.73
2024-01-30T22:30:03.024Z,11.67
2024-01-30T22:32:30.241Z,11.33
2024-01-30T22:34:57.469Z,10.50
2024-01-30T22:37:24.591Z,10.30
2024-01-30T22:39:51.617Z,10.50
2024-01-30T22:42:18.688Z,9.90
2024-01-30T22:44:45.740Z,9.43
2024-01-30T22:47:12.750Z,9.53
2024-01-30T22:49:39.765Z,10.17
2024-01-30T22:52:07.165Z,9.93
2024-01-30T22:54:34.145Z,9.77
2024-01-30T22:57:01.261Z,9.87
2024-01-30T22:59:37.125Z,11.47
2024-01-30T23:02:08.289Z,11.27
2024-01-30T23:04:35.729Z,10.63
2024-01-30T23:07:02.973Z,10.77
2024-01-30T23:09:30.095Z,10.50
2024-01-30T23:11:57.095Z,11.27
2024-01-30T23:14:24.402Z,11.77
2024-01-30T23:16:51.450Z,11.07
2024-01-30T23:19:18.901Z,11.33
2024-01-30T23:21:46.133Z,11.40
2024-01-30T23:24:13.213Z,11.73
2024-01-30T23:26:43.034Z,12.37
2024-01-30T23:29:09.997Z,12.27
2024-01-30T23:31:44.394Z,11.70
2024-01-30T23:34:13.319Z,10.83
2024-01-30T23:36:43.321Z,11.63
2024-01-30T23:39:14.176Z,12.17
2024-01-30T23:42:21.924Z,11.13
2024-01-30T23:44:49.098Z,12.47
2024-01-30T23:47:26.671Z,11.97
2024-01-30T23:49:53.784Z,12.43
2024-01-30T23:52:22.112Z,12.30
2024-01-30T23:54:49.243Z,12.00
2024-01-30T23:57:16.434Z,12.23
2024-01-30T23:59:43.417Z,13.20
